TimeMST,TemperatureF,Dew PointF,Humidity,Sea Level PressureIn,VisibilityMPH,Wind Direction,Wind SpeedMPH,Gust SpeedMPH,PrecipitationIn,Events,Conditions,WindDirDegrees,DateUTC
6:55 AM,45.5,17.4,33,30.07,10.0,WNW,3.5,-,N/A,,Clear,290,2012-12-06 13:55:00
7:15 AM,44.1,17.8,35,30.07,10.0,Calm,Calm,-,N/A,,Clear,0,2012-12-06 14:15:00
7:35 AM,46.0,17.1,31,30.06,10.0,Calm,Calm,-,N/A,,Clear,0,2012-12-06 14:35:00
7:55 AM,46.4,16.7,31,30.06,10.0,Calm,Calm,-,N/A,,Clear,0,2012-12-06 14:55:00
8:15 AM,47.5,16.7,29,30.06,10.0,Calm,Calm,-,N/A,,Clear,0,2012-12-06 15:15:00
8:35 AM,48.2,15.8,27,30.06,10.0,Calm,Calm,-,N/A,,Clear,0,2012-12-06 15:35:00
8:55 AM,45.3,17.2,33,30.06,10.0,Calm,Calm,-,N/A,,Clear,0,2012-12-06 15:55:00
9:15 AM,41.9,19.0,40,30.07,10.0,South,3.5,-,N/A,,Clear,170,2012-12-06 16:15:00
9:35 AM,45.0,19.4,36,30.07,10.0,SSE,3.5,-,N/A,,Clear,150,2012-12-06 16:35:00
9:55 AM,45.3,17.6,33,30.07,10.0,SE,4.6,-,N/A,,Clear,140,2012-12-06 16:55:00
10:15 AM,47.3,17.8,31,30.07,7.0,SE,5.8,-,N/A,,Clear,140,2012-12-06 17:15:00
10:35 AM,47.1,17.4,31,30.07,10.0,ESE,4.6,-,N/A,,Clear,110,2012-12-06 17:35:00
10:55 AM,48.4,17.4,29,30.06,10.0,SE,6.9,-,N/A,,Clear,140,2012-12-06 17:55:00
11:15 AM,49.8,16.9,27,30.05,10.0,SSE,5.8,-,N/A,,Clear,150,2012-12-06 18:15:00
11:35 AM,50.9,15.8,25,30.04,10.0,SSE,6.9,-,N/A,,Clear,160,2012-12-06 18:35:00
11:55 AM,52.0,15.6,24,30.03,10.0,SSE,8.1,-,N/A,,Clear,160,2012-12-06 18:55:00
12:15 PM,52.2,15.8,24,30.01,10.0,SSE,9.2,-,N/A,,Clear,160,2012-12-06 19:15:00
12:35 PM,51.4,16.3,25,30.00,10.0,South,9.2,-,N/A,,Clear,170,2012-12-06 19:35:00
12:55 PM,52.0,17.4,26,29.99,10.0,SSW,5.8,-,N/A,,Clear,200,2012-12-06 19:55:00
1:15 PM,51.8,17.2,26,29.98,10.0,South,4.6,-,N/A,,Clear,180,2012-12-06 20:15:00
1:35 PM,53.4,17.6,24,29.97,10.0,SSE,6.9,-,N/A,,Clear,160,2012-12-06 20:35:00
1:55 PM,55.8,18.1,23,29.97,7.0,South,9.2,-,N/A,,Mostly Cloudy,170,2012-12-06 20:55:00
2:15 PM,55.4,18.5,24,29.96,7.0,South,8.1,17.3,N/A,,Overcast,170,2012-12-06 21:15:00
2:35 PM,57.4,19.9,23,29.97,10.0,WSW,4.6,-,N/A,,Mostly Cloudy,240,2012-12-06 21:35:00
2:55 PM,55.4,18.5,24,29.97,10.0,East,3.5,-,N/A,,Mostly Cloudy,100,2012-12-06 21:55:00
3:15 PM,55.2,19.0,24,29.97,10.0,NNW,3.5,-,N/A,,Mostly Cloudy,330,2012-12-06 22:15:00
3:35 PM,55.8,19.8,25,29.97,10.0,Calm,Calm,-,N/A,,Overcast,0,2012-12-06 22:35:00
3:55 PM,55.8,22.6,28,29.98,10.0,WSW,6.9,-,N/A,,Overcast,250,2012-12-06 22:55:00
4:15 PM,55.2,22.1,28,29.98,10.0,West,13.8,-,N/A,,Scattered Clouds,260,2012-12-06 23:15:00
4:35 PM,54.5,22.1,28,29.98,10.0,SW,9.2,16.1,N/A,,Clear,220,2012-12-06 23:35:00
4:55 PM,53.6,22.1,29,29.97,10.0,SW,10.4,-,N/A,,Clear,230,2012-12-06 23:55:00
5:15 PM,52.9,22.5,31,29.97,10.0,South,4.6,-,N/A,,Clear,180,2012-12-07 00:15:00
5:35 PM,51.1,20.5,30,29.98,10.0,South,4.6,-,N/A,,Clear,190,2012-12-07 00:35:00
5:55 PM,50.9,21.2,31,29.98,10.0,South,3.5,-,N/A,,Clear,180,2012-12-07 00:55:00
6:15 PM,50.9,21.9,32,29.99,10.0,SSW,4.6,-,N/A,,Clear,200,2012-12-07 01:15:00
6:35 PM,51.1,22.8,33,29.99,10.0,Calm,Calm,-,N/A,,Clear,0,2012-12-07 01:35:00
7:35 PM,50.0,24.8,37,29.99,10.0,West,6.9,-,N/A,,Clear,270,2012-12-07 02:35:00
7:55 PM,50.0,24.8,37,29.99,10.0,West,5.8,-,N/A,,Clear,280,2012-12-07 02:55:00
8:15 PM,49.6,24.8,38,29.99,10.0,West,6.9,-,N/A,,Clear,260,2012-12-07 03:15:00
8:35 PM,49.6,25.2,38,29.99,10.0,West,6.9,-,N/A,,Clear,270,2012-12-07 03:35:00
8:55 PM,49.3,25.2,39,29.99,10.0,West,4.6,-,N/A,,Clear,270,2012-12-07 03:55:00
9:15 PM,48.9,25.3,40,29.99,10.0,Calm,Calm,-,N/A,,Clear,0,2012-12-07 04:15:00
9:35 PM,48.4,25.3,41,30.00,10.0,SSE,8.1,-,N/A,,Scattered Clouds,150,2012-12-07 04:35:00
9:55 PM,47.5,23.7,39,30.00,10.0,South,4.6,-,N/A,,Scattered Clouds,190,2012-12-07 04:55:00
10:15 PM,46.6,21.7,37,30.00,10.0,South,6.9,-,N/A,,Scattered Clouds,180,2012-12-07 05:15:00
10:35 PM,47.3,21.4,36,30.00,10.0,SSW,6.9,-,N/A,,Clear,200,2012-12-07 05:35:00
10:55 PM,45.9,23.4,41,30.00,10.0,Calm,Calm,-,N/A,,Clear,0,2012-12-07 05:55:00
11:15 PM,46.9,23.9,40,29.99,10.0,Calm,Calm,-,N/A,,Clear,0,2012-12-07 06:15:00
11:35 PM,45.9,23.4,41,30.00,10.0,Calm,Calm,-,N/A,,Clear,0,2012-12-07 06:35:00
11:55 PM,46.0,22.6,40,29.99,10.0,Calm,Calm,-,N/A,,Clear,0,2012-12-07 06:55:00